createdAt,value
2018-04-25T00:02:53.788Z,0
2018-04-25T00:07:54.105Z,0
2018-04-25T00:12:54.173Z,0
2018-04-25T00:17:54.306Z,0
2018-04-25T00:22:54.384Z,0
2018-04-25T00:27:53.998Z,0
2018-04-25T00:32:54.275Z,0
2018-04-25T00:37:54.387Z,0
2018-04-25T00:42:54.644Z,0
2018-04-25T00:47:53.796Z,0
2018-04-25T00:52:53.966Z,0
2018-04-25T00:57:53.973Z,0
2018-04-25T01:02:54.240Z,0
2018-04-25T01:07:53.957Z,0
2018-04-25T01:12:54.079Z,0
2018-04-25T01:17:54.470Z,0
2018-04-25T01:22:54.645Z,0
2018-04-25T01:27:53.917Z,0
2018-04-25T01:32:54.181Z,0
2018-04-25T01:37:54.766Z,0
2018-04-25T01:42:53.871Z,0
2018-04-25T01:47:54.103Z,0
2018-04-25T01:52:54.223Z,0
2018-04-25T01:57:54.298Z,0
2018-04-25T02:02:54.598Z,0
2018-04-25T02:07:54.629Z,0
2018-04-25T02:12:54.837Z,0
2018-04-25T02:17:53.994Z,0
2018-04-25T02:22:54.313Z,0
2018-04-25T02:27:54.430Z,0
2018-04-25T02:32:54.563Z,0
2018-04-25T02:37:54.673Z,0
2018-04-25T02:42:54.853Z,0
2018-04-25T02:47:53.972Z,0
2018-04-25T02:52:54.117Z,0
2018-04-25T02:57:54.247Z,0
2018-04-25T03:02:54.452Z,0
2018-04-25T03:07:54.656Z,0
2018-04-25T03:12:54.842Z,0
2018-04-25T03:17:53.954Z,0
2018-04-25T03:22:54.122Z,0
2018-04-25T03:27:54.307Z,0
2018-04-25T03:32:54.486Z,0
2018-04-25T03:37:54.649Z,0
2018-04-25T03:42:54.787Z,0
2018-04-25T03:47:54.009Z,0
2018-04-25T03:52:54.203Z,0
2018-04-25T03:57:54.474Z,0
2018-04-25T04:02:54.714Z,0
2018-04-25T04:07:54.026Z,0
2018-04-25T04:12:54.148Z,3.3
2018-04-25T04:17:54.395Z,3.3
2018-04-25T04:22:54.619Z,3.3
2018-04-25T04:27:54.858Z,3.3
2018-04-25T04:32:54.421Z,5
2018-04-25T04:37:54.940Z,5
2018-04-25T04:42:54.311Z,7
2018-04-25T04:47:54.547Z,7
2018-04-25T04:52:54.856Z,16
2018-04-25T04:57:54.073Z,16
2018-04-25T05:02:54.368Z,19.4
2018-04-25T05:07:54.775Z,19.4
2018-04-25T05:12:59.294Z,31
2018-04-25T05:17:54.525Z,31
2018-04-25T05:22:54.981Z,13.4
2018-04-25T05:27:54.155Z,13.4
2018-04-25T05:32:54.220Z,37
2018-04-25T05:37:54.397Z,37
2018-04-25T05:42:54.564Z,25.8
2018-04-25T05:47:54.925Z,25.8
2018-04-25T05:52:53.999Z,36.6
2018-04-25T05:57:54.230Z,36.6
2018-04-25T06:02:54.492Z,90.2
2018-04-25T06:07:54.582Z,90.2
2018-04-25T06:12:55.044Z,38
2018-04-25T06:17:54.270Z,38
2018-04-25T06:22:54.161Z,21.4
2018-04-25T06:27:54.415Z,21.4
2018-04-25T06:32:54.626Z,96.4
2018-04-25T06:37:54.766Z,96.4
2018-04-25T06:42:55.209Z,44.6
2018-04-25T06:47:54.380Z,44.6
2018-04-25T06:52:54.528Z,26.8
2018-04-25T06:57:54.670Z,26.8
2018-04-25T07:02:54.845Z,114.2
2018-04-25T07:07:54.325Z,114.2
2018-04-25T07:12:54.694Z,81.8
2018-04-25T07:17:54.785Z,81.8
2018-04-25T07:22:55.022Z,134.7
2018-04-25T07:27:54.250Z,134.7
2018-04-25T07:32:54.401Z,179
2018-04-25T07:37:54.573Z,179
2018-04-25T07:42:54.747Z,94.4
2018-04-25T07:47:54.841Z,94.4
2018-04-25T07:52:55.072Z,187.8
2018-04-25T07:57:54.237Z,187.8
2018-04-25T08:02:54.581Z,171
2018-04-25T08:07:55.140Z,171
2018-04-25T08:12:54.196Z,465
2018-04-25T08:17:54.328Z,465
2018-04-25T08:22:54.433Z,269.6
2018-04-25T08:27:54.572Z,269.6
2018-04-25T08:32:54.879Z,87.2
2018-04-25T08:37:55.078Z,87.2
2018-04-25T08:42:54.281Z,157.3
2018-04-25T08:47:54.496Z,157.3
2018-04-25T08:52:54.751Z,216.2
2018-04-25T08:57:54.923Z,216.2
2018-04-25T09:02:55.295Z,303.5
2018-04-25T09:07:55.080Z,303.5
2018-04-25T09:12:55.185Z,828
2018-04-25T09:17:55.316Z,828
2018-04-25T09:22:54.515Z,747
2018-04-25T09:27:54.644Z,747
2018-04-25T09:32:54.949Z,270.6
2018-04-25T09:37:55.198Z,270.6
2018-04-25T09:42:54.346Z,904
2018-04-25T09:47:54.547Z,904
2018-04-25T09:52:55.022Z,142.2
2018-04-25T09:57:55.281Z,142.2
2018-04-25T10:02:54.645Z,114.6
2018-04-25T10:07:54.732Z,114.6
2018-04-25T10:12:54.921Z,68.4
2018-04-25T10:17:55.080Z,68.4
2018-04-25T10:22:55.262Z,88.4
2018-04-25T10:27:54.516Z,88.4
2018-04-25T10:32:54.939Z,136
2018-04-25T10:37:55.177Z,136
2018-04-25T10:42:55.191Z,82.3
2018-04-25T10:47:55.396Z,82.3
2018-04-25T10:52:54.533Z,228.4
2018-04-25T10:57:54.700Z,228.4
2018-04-25T11:02:54.903Z,113.6
2018-04-25T11:07:55.250Z,113.6
2018-04-25T11:12:54.552Z,92.6
2018-04-25T11:17:54.761Z,92.6
2018-04-25T11:22:55.040Z,189.8
2018-04-25T11:27:55.309Z,189.8
2018-04-25T11:32:54.572Z,208.5
2018-04-25T11:37:54.775Z,208.5
2018-04-25T11:42:55.144Z,257.6
2018-04-25T11:47:54.665Z,257.6
2018-04-25T11:52:55.021Z,83.5
2018-04-25T11:57:55.175Z,83.5
2018-04-25T12:02:54.967Z,40.2
2018-04-25T12:07:55.339Z,40.2
2018-04-25T12:12:54.621Z,44.8
2018-04-25T12:17:54.820Z,44.8
2018-04-25T12:22:54.697Z,110.2
2018-04-25T12:27:54.847Z,110.2
2018-04-25T12:32:55.066Z,91.5
2018-04-25T12:37:55.194Z,91.5
2018-04-25T12:42:55.384Z,26.8
2018-04-25T12:47:54.554Z,26.8
2018-04-25T12:52:54.679Z,49.2
2018-04-25T12:57:54.870Z,49.2
2018-04-25T13:02:55.311Z,174.2
2018-04-25T13:07:55.460Z,174.2
2018-04-25T13:12:55.005Z,140
2018-04-25T13:17:55.247Z,140
2018-04-25T13:22:55.401Z,133
2018-04-25T13:27:55.538Z,133
2018-04-25T13:32:54.797Z,146.8
2018-04-25T13:37:55.147Z,146.8
2018-04-25T13:42:55.373Z,70.2
2018-04-25T13:47:54.644Z,70.2
2018-04-25T13:52:54.915Z,231.5
2018-04-25T13:57:55.111Z,231.5
2018-04-25T14:02:55.357Z,207.8
2018-04-25T14:07:55.580Z,207.8
2018-04-25T14:12:55.112Z,248.6
2018-04-25T14:17:55.371Z,248.6
2018-04-25T14:22:55.585Z,287.8
2018-04-25T14:27:54.806Z,287.8
2018-04-25T14:32:55.025Z,193.3
2018-04-25T14:37:55.300Z,193.3
2018-04-25T14:42:55.595Z,154.2
2018-04-25T14:47:54.795Z,154.2
2018-04-25T14:52:54.948Z,210
2018-04-25T14:57:55.102Z,210
2018-04-25T15:02:55.341Z,196.3
2018-04-25T15:07:55.514Z,196.3
2018-04-25T15:12:55.465Z,193.2
2018-04-25T15:17:55.669Z,193.2
2018-04-25T15:22:54.839Z,183
2018-04-25T15:27:55.178Z,183
2018-04-25T15:32:55.353Z,171
2018-04-25T15:37:55.623Z,171
2018-04-25T15:42:54.991Z,144.7
2018-04-25T15:47:55.172Z,144.7
2018-04-25T15:52:55.436Z,138.3
2018-04-25T15:57:55.758Z,138.3
2018-04-25T16:02:54.964Z,121.2
2018-04-25T16:07:55.161Z,121.2
2018-04-25T16:12:54.901Z,139.2
2018-04-25T16:17:55.218Z,139.2
2018-04-25T16:22:55.407Z,113.8
2018-04-25T16:27:55.692Z,113.8
2018-04-25T16:32:54.904Z,66.4
2018-04-25T16:37:55.058Z,66.4
2018-04-25T16:42:55.506Z,40.5
2018-04-25T16:47:55.776Z,40.5
2018-04-25T16:52:54.997Z,79.5
2018-04-25T16:57:55.268Z,79.5
2018-04-25T17:02:55.508Z,80
2018-04-25T17:07:54.803Z,80
2018-04-25T17:12:55.444Z,39.5
2018-04-25T17:17:55.574Z,39.5
2018-04-25T17:22:55.756Z,52
2018-04-25T17:27:54.870Z,52
2018-04-25T17:32:55.137Z,26.5
2018-04-25T17:37:55.325Z,26.5
2018-04-25T17:42:55.582Z,41
2018-04-25T17:47:55.911Z,41
2018-04-25T17:52:55.135Z,34.6
2018-04-25T17:57:55.266Z,34.6
2018-04-25T18:02:55.635Z,20.8
2018-04-25T18:07:55.837Z,20.8
2018-04-25T18:12:55.318Z,9.7
2018-04-25T18:17:55.483Z,9.7
2018-04-25T18:22:55.836Z,5
2018-04-25T18:27:55.045Z,5
2018-04-25T18:32:55.242Z,0
2018-04-25T18:37:55.498Z,0
2018-04-25T18:42:55.644Z,0
2018-04-25T18:47:55.916Z,0
2018-04-25T18:52:55.112Z,0
2018-04-25T18:57:55.385Z,0
2018-04-25T19:02:55.735Z,0
2018-04-25T19:07:55.958Z,0
2018-04-25T19:12:55.265Z,0
2018-04-25T19:17:55.512Z,0
2018-04-25T19:22:55.752Z,0
2018-04-25T19:27:55.954Z,0
2018-04-25T19:32:55.203Z,0
2018-04-25T19:37:55.422Z,0
2018-04-25T19:42:55.761Z,0
2018-04-25T19:47:55.912Z,0
2018-04-25T19:52:55.146Z,0
2018-04-25T19:57:55.390Z,0
2018-04-25T20:02:55.752Z,0
2018-04-25T20:07:55.963Z,0
2018-04-25T20:12:55.529Z,0
2018-04-25T20:17:55.694Z,0
2018-04-25T20:22:56.069Z,0
2018-04-25T20:27:55.312Z,0
2018-04-25T20:32:55.561Z,0
2018-04-25T20:37:55.814Z,0
2018-04-25T20:42:56.040Z,0
2018-04-25T20:47:55.341Z,0
2018-04-25T20:52:55.573Z,0
2018-04-25T20:57:55.837Z,0
2018-04-25T21:02:55.204Z,0
2018-04-25T21:07:55.840Z,0
2018-04-25T21:12:55.114Z,0
2018-04-25T21:17:55.381Z,0
2018-04-25T21:22:55.633Z,0
2018-04-25T21:27:55.791Z,0
2018-04-25T21:32:56.086Z,0
2018-04-25T21:37:55.262Z,0
2018-04-25T21:42:55.440Z,0
2018-04-25T21:47:55.676Z,0
2018-04-25T21:52:55.999Z,0
2018-04-25T21:57:55.219Z,0
2018-04-25T22:02:55.571Z,0
2018-04-25T22:07:55.764Z,0
2018-04-25T22:12:56.106Z,0
2018-04-25T22:17:56.236Z,0
2018-04-25T22:22:55.363Z,0
2018-04-25T22:27:55.685Z,0
2018-04-25T22:32:55.907Z,0
2018-04-25T22:37:56.044Z,0
2018-04-25T22:42:56.191Z,0
2018-04-25T22:47:55.411Z,0
2018-04-25T22:52:55.601Z,0
2018-04-25T22:57:55.787Z,0
2018-04-25T23:02:55.991Z,0
2018-04-25T23:07:55.426Z,0
2018-04-25T23:12:56.093Z,0
2018-04-25T23:17:56.086Z,0
2018-04-25T23:22:56.183Z,0
2018-04-25T23:27:55.286Z,0
2018-04-25T23:32:55.600Z,0
2018-04-25T23:37:55.765Z,0
2018-04-25T23:42:56.046Z,0
2018-04-25T23:47:56.180Z,0
2018-04-25T23:52:55.401Z,0
2018-04-25T23:57:55.571Z,0
